createdAt,value
2023-04-08T00:00:05.378Z,29.80
2023-04-08T00:00:22.943Z,29.85
2023-04-08T00:00:34.760Z,31.13
2023-04-08T00:00:46.597Z,30.77
2023-04-08T00:00:59.071Z,30.08
2023-04-08T00:01:12.001Z,28.98
2023-04-08T00:01:24.263Z,29.17
2023-04-08T00:01:36.776Z,29.85
2023-04-08T00:01:49.314Z,30.17
2023-04-08T00:02:01.546Z,30.67
2023-04-08T00:02:13.487Z,30.14
2023-04-08T00:02:25.793Z,30.70
2023-04-08T00:02:38.466Z,30.48
2023-04-08T00:02:52.277Z,30.38
2023-04-08T00:03:04.917Z,30.23
2023-04-08T00:03:17.322Z,30.38
2023-04-08T00:03:29.901Z,30.65
2023-04-08T00:03:42.628Z,30.40
2023-04-08T00:03:54.784Z,29.98
2023-04-08T00:04:07.334Z,29.45
2023-04-08T00:04:20.126Z,29.75
2023-04-08T00:04:33.231Z,30.10
2023-04-08T00:04:45.370Z,30.38
2023-04-08T00:04:58.342Z,30.67
2023-04-08T00:05:10.704Z,31.48
2023-04-08T00:05:22.783Z,31.80
2023-04-08T00:05:35.453Z,32.00
2023-04-08T00:05:47.368Z,30.70
2023-04-08T00:05:59.793Z,29.65
2023-04-08T00:06:12.194Z,29.77
2023-04-08T00:06:24.178Z,30.75
2023-04-08T00:06:35.873Z,30.95
2023-04-08T00:06:48.469Z,30.08
2023-04-08T00:07:02.475Z,29.95
2023-04-08T00:07:14.464Z,30.05
2023-04-08T00:07:27.510Z,30.55
2023-04-08T00:07:39.575Z,30.75
2023-04-08T00:07:53.241Z,30.38
2023-04-08T00:08:06.094Z,31.02
2023-04-08T00:08:18.436Z,31.27
2023-04-08T00:08:31.045Z,30.38
2023-04-08T00:08:43.711Z,30.42
2023-04-08T00:08:55.577Z,30.77
2023-04-08T00:09:07.337Z,30.83
2023-04-08T00:09:19.432Z,30.65
2023-04-08T00:09:31.866Z,29.38
2023-04-08T00:09:44.167Z,29.70
2023-04-08T00:09:58.198Z,30.40
2023-04-08T00:10:10.676Z,31.50
2023-04-08T00:10:22.779Z,31.88
2023-04-08T00:10:34.790Z,30.55
2023-04-08T00:10:47.007Z,30.42
2023-04-08T00:10:58.994Z,29.98
2023-04-08T00:11:11.348Z,29.60
2023-04-08T00:11:23.968Z,29.48
2023-04-08T00:11:36.958Z,29.77
2023-04-08T00:11:49.582Z,29.80
2023-04-08T00:12:01.764Z,29.73
2023-04-08T00:12:14.195Z,28.83
2023-04-08T00:12:27.468Z,28.65
2023-04-08T00:12:39.714Z,29.35
2023-04-08T00:12:51.962Z,29.27
2023-04-08T00:13:04.011Z,29.35
2023-04-08T00:13:15.924Z,28.45
2023-04-08T00:13:28.861Z,28.20
2023-04-08T00:13:40.758Z,28.75
2023-04-08T00:13:52.769Z,28.35
2023-04-08T00:14:05.214Z,27.95
2023-04-08T00:14:17.423Z,28.35
2023-04-08T00:14:30.062Z,28.48
2023-04-08T00:14:42.198Z,27.55
2023-04-08T00:14:54.303Z,27.92
2023-04-08T00:15:07.268Z,27.80
2023-04-08T00:15:19.929Z,27.85
2023-04-08T00:15:32.078Z,27.98
2023-04-08T00:15:44.092Z,28.33
2023-04-08T00:15:56.180Z,29.15
2023-04-08T00:16:08.380Z,29.33
2023-04-08T00:16:20.477Z,28.90
2023-04-08T00:16:32.975Z,28.45
2023-04-08T00:16:45.209Z,29.10
2023-04-08T00:16:58.048Z,29.35
2023-04-08T00:17:11.035Z,29.35
2023-04-08T00:17:23.337Z,28.80
2023-04-08T00:17:35.359Z,28.50
2023-04-08T00:17:48.182Z,28.10
2023-04-08T00:18:02.277Z,27.83
2023-04-08T00:18:14.880Z,28.17
2023-04-08T00:18:27.745Z,28.00
2023-04-08T00:18:39.520Z,27.60
2023-04-08T00:18:52.243Z,27.63
2023-04-08T00:19:04.574Z,28.13
2023-04-08T00:19:17.108Z,27.73
2023-04-08T00:19:29.437Z,26.85
2023-04-08T00:19:41.452Z,26.63
2023-04-08T00:19:53.775Z,26.70
2023-04-08T00:20:08.403Z,26.67
2023-04-08T00:20:20.986Z,26.70
2023-04-08T00:20:33.657Z,26.85
2023-04-08T00:20:46.097Z,27.60
2023-04-08T00:20:58.266Z,27.88
2023-04-08T00:21:10.942Z,27.77
2023-04-08T00:21:24.136Z,27.55
2023-04-08T00:21:36.406Z,27.60
2023-04-08T00:21:48.753Z,27.27
2023-04-08T00:22:01.039Z,27.88
2023-04-08T00:22:13.520Z,27.75
2023-04-08T00:22:25.152Z,27.40
2023-04-08T00:22:37.109Z,27.15
2023-04-08T00:22:49.624Z,27.80
2023-04-08T00:23:03.096Z,27.95
2023-04-08T00:23:15.500Z,27.25
2023-04-08T00:23:28.071Z,26.40
2023-04-08T00:23:40.292Z,27.13
2023-04-08T00:23:53.043Z,27.35
2023-04-08T00:24:05.945Z,27.20
2023-04-08T00:24:19.391Z,27.17
2023-04-08T00:24:31.842Z,27.02
2023-04-08T00:24:44.399Z,26.67
2023-04-08T00:24:57.824Z,26.80
2023-04-08T00:25:10.531Z,26.75
2023-04-08T00:25:24.814Z,27.13
2023-04-08T00:25:40.706Z,27.38
2023-04-08T00:25:52.939Z,27.50
2023-04-08T00:26:05.140Z,27.80
2023-04-08T00:26:17.174Z,27.27
2023-04-08T00:26:29.428Z,27.50
2023-04-08T00:26:42.696Z,27.30
2023-04-08T00:26:56.688Z,26.55
2023-04-08T00:27:09.171Z,26.30
2023-04-08T00:27:21.765Z,27.00
2023-04-08T00:27:33.820Z,28.10
2023-04-08T00:27:46.430Z,27.75
2023-04-08T00:27:59.083Z,29.10
2023-04-08T00:28:11.431Z,31.33
2023-04-08T00:28:23.536Z,32.20
2023-04-08T00:28:35.733Z,34.28
2023-04-08T00:28:48.051Z,33.35
2023-04-08T00:29:00.238Z,31.23
2023-04-08T00:29:12.387Z,30.00
2023-04-08T00:29:24.511Z,29.30
2023-04-08T00:29:36.259Z,29.52
2023-04-08T00:29:48.286Z,29.88
2023-04-08T00:30:01.252Z,29.45
2023-04-08T00:30:13.233Z,28.77
2023-04-08T00:30:26.216Z,27.48
2023-04-08T00:30:38.703Z,27.75
2023-04-08T00:30:53.354Z,28.20
2023-04-08T00:31:05.927Z,28.33
2023-04-08T00:31:18.110Z,28.10
2023-04-08T00:31:30.435Z,27.60
2023-04-08T00:31:44.739Z,27.42
2023-04-08T00:31:57.051Z,26.90
2023-04-08T00:32:09.202Z,27.15
2023-04-08T00:32:21.569Z,26.63
2023-04-08T00:32:34.431Z,27.27
2023-04-08T00:32:47.979Z,27.98
2023-04-08T00:33:00.269Z,27.90
2023-04-08T00:33:13.415Z,27.83
2023-04-08T00:33:25.795Z,27.63
2023-04-08T00:33:37.738Z,27.90
2023-04-08T00:33:50.230Z,28.55
2023-04-08T00:34:02.766Z,28.20
2023-04-08T00:34:15.869Z,28.08
2023-04-08T00:34:28.388Z,28.55
2023-04-08T00:34:41.102Z,28.67
2023-04-08T00:34:53.648Z,28.10
2023-04-08T00:35:06.153Z,27.85
2023-04-08T00:35:19.866Z,27.02
2023-04-08T00:35:32.016Z,28.08
2023-04-08T00:35:44.867Z,28.45
2023-04-08T00:35:57.544Z,28.95
2023-04-08T00:36:10.584Z,28.70
2023-04-08T00:36:22.599Z,27.80
2023-04-08T00:36:37.102Z,27.25
2023-04-08T00:36:49.965Z,27.63
2023-04-08T00:37:02.374Z,28.08
2023-04-08T00:37:15.024Z,27.92
2023-04-08T00:37:27.275Z,27.52
2023-04-08T00:37:39.351Z,27.77
2023-04-08T00:37:51.837Z,28.17
2023-04-08T00:38:06.246Z,28.73
2023-04-08T00:38:18.231Z,28.04
2023-04-08T00:38:30.400Z,27.73
2023-04-08T00:38:42.892Z,27.45
2023-04-08T00:38:55.024Z,28.30
2023-04-08T00:39:07.307Z,28.15
2023-04-08T00:39:19.579Z,27.40
2023-04-08T00:39:31.442Z,27.60
2023-04-08T00:39:43.188Z,28.67
2023-04-08T00:39:55.255Z,29.60
2023-04-08T00:40:08.310Z,29.70
2023-04-08T00:40:21.414Z,29.40
2023-04-08T00:40:34.643Z,28.30
2023-04-08T00:40:47.196Z,28.52
2023-04-08T00:40:59.293Z,29.02
2023-04-08T00:41:11.527Z,28.63
2023-04-08T00:41:24.176Z,28.08
2023-04-08T00:41:36.185Z,28.00
2023-04-08T00:41:48.740Z,28.58
2023-04-08T00:42:01.030Z,28.50
2023-04-08T00:42:13.137Z,28.40
2023-04-08T00:42:26.012Z,29.42
2023-04-08T00:42:38.448Z,30.02
2023-04-08T00:42:52.073Z,29.62
2023-04-08T00:43:05.053Z,29.38
2023-04-08T00:43:17.018Z,28.75
2023-04-08T00:43:29.078Z,28.23
2023-04-08T00:43:41.089Z,28.08
2023-04-08T00:43:55.338Z,28.63
2023-04-08T00:44:07.739Z,29.02
2023-04-08T00:44:20.353Z,29.52
2023-04-08T00:44:32.460Z,29.25
2023-04-08T00:44:44.666Z,28.50
2023-04-08T00:44:57.234Z,28.67
2023-04-08T00:45:11.422Z,28.77
2023-04-08T00:45:24.037Z,28.65
2023-04-08T00:45:36.459Z,28.67
2023-04-08T00:45:48.555Z,28.95
2023-04-08T00:46:00.758Z,30.25
2023-04-08T00:46:13.946Z,30.10
2023-04-08T00:46:26.167Z,29.10
2023-04-08T00:46:40.315Z,28.77
2023-04-08T00:46:52.938Z,28.60
2023-04-08T00:47:05.359Z,29.00
2023-04-08T00:47:17.981Z,28.70
2023-04-08T00:47:30.548Z,28.55
2023-04-08T00:47:43.122Z,28.64
2023-04-08T00:47:57.595Z,28.48
2023-04-08T00:48:09.983Z,28.88
2023-04-08T00:48:22.232Z,29.38
2023-04-08T00:48:34.629Z,28.58
2023-04-08T00:48:47.168Z,28.38
2023-04-08T00:49:00.172Z,28.73
2023-04-08T00:49:12.393Z,29.35
2023-04-08T00:49:26.015Z,30.58
2023-04-08T00:49:38.290Z,30.17
2023-04-08T00:49:50.187Z,29.75
2023-04-08T00:50:03.389Z,30.25
2023-04-08T00:50:18.404Z,30.08
2023-04-08T00:50:30.731Z,29.15
2023-04-08T00:50:43.622Z,28.55
2023-04-08T00:50:56.250Z,29.00
2023-04-08T00:51:08.973Z,28.85
2023-04-08T00:51:21.332Z,29.30
2023-04-08T00:51:33.664Z,30.02
2023-04-08T00:51:45.395Z,30.05
2023-04-08T00:51:58.949Z,30.27
2023-04-08T00:52:11.089Z,30.40
2023-04-08T00:52:24.369Z,30.25
2023-04-08T00:52:36.080Z,29.80
2023-04-08T00:52:48.665Z,29.75
2023-04-08T00:53:01.209Z,28.92
2023-04-08T00:53:17.480Z,29.40
2023-04-08T00:53:31.309Z,30.08
2023-04-08T00:53:43.591Z,31.08
2023-04-08T00:53:55.582Z,31.13
2023-04-08T00:54:07.762Z,30.17
2023-04-08T00:54:21.017Z,30.15
2023-04-08T00:54:33.284Z,29.98
2023-04-08T00:54:45.746Z,29.85
2023-04-08T00:54:58.008Z,29.73
2023-04-08T00:55:11.513Z,29.50
2023-04-08T00:55:23.662Z,29.80
2023-04-08T00:55:35.828Z,29.50
2023-04-08T00:55:47.687Z,29.58
2023-04-08T00:55:59.555Z,30.02
2023-04-08T00:56:11.825Z,30.42
2023-04-08T00:56:24.485Z,29.98
2023-04-08T00:56:37.398Z,30.38
2023-04-08T00:56:49.694Z,31.08
2023-04-08T00:57:02.154Z,31.77
2023-04-08T00:57:14.463Z,32.00
2023-04-08T00:57:26.833Z,32.35
2023-04-08T00:57:39.462Z,32.35
2023-04-08T00:57:51.524Z,32.00
2023-04-08T00:58:03.863Z,30.90
2023-04-08T00:58:17.375Z,30.70
2023-04-08T00:58:30.840Z,32.15
2023-04-08T00:58:45.977Z,33.20
2023-04-08T00:58:59.882Z,32.80
2023-04-08T00:59:12.376Z,32.25
2023-04-08T00:59:25.371Z,31.70
2023-04-08T00:59:38.878Z,31.80
2023-04-08T00:59:52.189Z,32.17
2023-04-08T01:00:04.866Z,31.58
2023-04-08T01:00:17.422Z,31.83
2023-04-08T01:00:30.409Z,31.17
2023-04-08T01:00:50.061Z,31.42
2023-04-08T01:01:06.922Z,32.47
2023-04-08T01:01:26.295Z,31.95
2023-04-08T01:01:44.602Z,32.08
2023-04-08T01:02:03.756Z,32.55
2023-04-08T01:02:23.345Z,32.80
2023-04-08T01:02:42.026Z,32.30
2023-04-08T01:03:05.735Z,31.85
2023-04-08T01:03:24.732Z,30.98
2023-04-08T01:03:49.539Z,31.63
2023-04-08T01:04:09.567Z,33.25
2023-04-08T01:04:31.640Z,32.30
2023-04-08T01:04:53.631Z,33.33
2023-04-08T01:05:07.608Z,32.50
2023-04-08T01:05:28.993Z,32.17
2023-04-08T01:05:51.964Z,32.67
2023-04-08T01:06:10.940Z,33.53
2023-04-08T01:06:32.624Z,33.35
2023-04-08T01:06:51.794Z,32.30
2023-04-08T01:07:09.305Z,32.17
2023-04-08T01:07:27.038Z,33.00
2023-04-08T01:07:46.778Z,33.85
2023-04-08T01:08:02.030Z,33.72
2023-04-08T01:08:18.029Z,34.03
2023-04-08T01:08:32.699Z,33.30
2023-04-08T01:08:46.375Z,32.30
2023-04-08T01:09:00.066Z,32.50
2023-04-08T01:09:13.631Z,32.90
2023-04-08T01:09:30.089Z,33.35
2023-04-08T01:09:48.608Z,32.72
2023-04-08T01:10:05.396Z,33.17
2023-04-08T01:10:22.630Z,33.13
2023-04-08T01:10:37.459Z,33.10
2023-04-08T01:10:53.889Z,31.95
2023-04-08T01:11:11.952Z,31.38
2023-04-08T01:11:24.376Z,31.25
2023-04-08T01:11:42.040Z,32.85
2023-04-08T01:11:56.510Z,33.65
2023-04-08T01:12:11.160Z,33.25
2023-04-08T01:12:27.131Z,33.03
2023-04-08T01:12:44.122Z,32.22
2023-04-08T01:13:01.749Z,32.33
2023-04-08T01:13:19.052Z,31.95
2023-04-08T01:13:37.451Z,31.90
2023-04-08T01:13:52.626Z,32.42
2023-04-08T01:14:07.615Z,32.20
2023-04-08T01:14:23.619Z,33.17
2023-04-08T01:14:43.963Z,33.95
2023-04-08T01:14:59.352Z,32.85
2023-04-08T01:15:12.776Z,32.65
2023-04-08T01:15:27.599Z,32.53
2023-04-08T01:15:42.496Z,32.03
2023-04-08T01:15:56.300Z,32.50
2023-04-08T01:16:11.259Z,33.22
2023-04-08T01:16:25.884Z,33.03
2023-04-08T01:16:41.200Z,32.58
2023-04-08T01:16:57.245Z,32.83
2023-04-08T01:17:10.073Z,32.42
2023-04-08T01:17:23.572Z,31.55
2023-04-08T01:17:37.865Z,31.60
2023-04-08T01:17:53.292Z,32.58
2023-04-08T01:18:07.401Z,32.05
2023-04-08T01:18:22.280Z,31.90
2023-04-08T01:18:36.379Z,32.15
2023-04-08T01:18:50.948Z,32.78
2023-04-08T01:19:05.994Z,32.30
2023-04-08T01:19:26.015Z,31.50
2023-04-08T01:19:40.404Z,32.58
2023-04-08T01:19:54.769Z,32.05
2023-04-08T01:20:09.421Z,31.92
2023-04-08T01:20:22.626Z,32.45
2023-04-08T01:20:35.958Z,32.05
2023-04-08T01:20:50.489Z,31.98
2023-04-08T01:21:03.780Z,32.47
2023-04-08T01:21:18.390Z,32.42
2023-04-08T01:21:30.778Z,32.97
2023-04-08T01:21:44.254Z,33.13
2023-04-08T01:22:03.714Z,32.72
2023-04-08T01:22:22.286Z,32.55
2023-04-08T01:22:46.280Z,33.05
2023-04-08T01:23:10.294Z,33.63
2023-04-08T01:23:33.124Z,32.95
2023-04-08T01:23:57.310Z,33.60
2023-04-08T01:24:18.164Z,33.20
2023-04-08T01:24:34.330Z,33.42
2023-04-08T01:24:48.337Z,33.33
2023-04-08T01:25:05.129Z,33.08
2023-04-08T01:25:21.184Z,31.98
2023-04-08T01:25:35.952Z,31.80
2023-04-08T01:25:49.922Z,32.33
2023-04-08T01:26:02.212Z,32.13
2023-04-08T01:26:21.468Z,31.85
2023-04-08T01:26:34.620Z,33.42
2023-04-08T01:26:47.657Z,35.38
2023-04-08T01:27:01.512Z,34.72
2023-04-08T01:27:14.206Z,33.13
2023-04-08T01:27:28.625Z,33.08
2023-04-08T01:27:41.182Z,33.50
2023-04-08T01:27:54.681Z,33.25
2023-04-08T01:28:10.503Z,34.13
2023-04-08T01:28:26.956Z,33.85
2023-04-08T01:28:41.038Z,33.55
2023-04-08T01:28:54.941Z,33.95
2023-04-08T01:29:08.645Z,32.60
2023-04-08T01:29:21.701Z,32.00
2023-04-08T01:29:35.656Z,33.08
2023-04-08T01:29:52.364Z,33.47
2023-04-08T01:30:06.449Z,34.10
2023-04-08T01:30:20.853Z,34.72
2023-04-08T01:30:35.777Z,34.70
2023-04-08T01:30:49.435Z,34.20
2023-04-08T01:31:03.207Z,33.05
2023-04-08T01:31:17.266Z,33.08
2023-04-08T01:31:30.970Z,33.45
2023-04-08T01:31:43.943Z,32.53
2023-04-08T01:31:58.690Z,32.45
2023-04-08T01:32:13.885Z,35.50
2023-04-08T01:32:27.045Z,37.53
2023-04-08T01:32:40.330Z,36.83
2023-04-08T01:32:54.207Z,35.53
2023-04-08T01:33:12.164Z,35.20
2023-04-08T01:33:24.617Z,33.45
2023-04-08T01:33:40.836Z,32.60
2023-04-08T01:33:53.649Z,33.10
2023-04-08T01:34:08.282Z,34.03
2023-04-08T01:34:22.171Z,33.50
2023-04-08T01:34:35.979Z,31.92
2023-04-08T01:34:49.199Z,31.58
2023-04-08T01:35:02.507Z,31.85
2023-04-08T01:35:16.573Z,32.50
2023-04-08T01:35:30.513Z,32.30
2023-04-08T01:35:43.365Z,33.17
2023-04-08T01:35:56.925Z,33.72
2023-04-08T01:36:12.253Z,33.65
2023-04-08T01:36:25.956Z,33.08
2023-04-08T01:36:39.408Z,32.78
2023-04-08T01:36:53.930Z,33.20
2023-04-08T01:37:09.317Z,33.08
2023-04-08T01:37:23.528Z,34.40
2023-04-08T01:37:40.103Z,41.28
2023-04-08T01:37:53.824Z,45.60
2023-04-08T01:38:09.717Z,40.80
2023-04-08T01:38:24.882Z,36.00
2023-04-08T01:38:39.345Z,36.30
2023-04-08T01:38:52.172Z,35.33
2023-04-08T01:39:06.757Z,35.10
2023-04-08T01:39:20.825Z,34.35
2023-04-08T01:39:35.276Z,32.85
2023-04-08T01:39:48.671Z,32.58
2023-04-08T01:40:02.697Z,33.25
2023-04-08T01:40:15.955Z,33.97
2023-04-08T01:40:28.768Z,35.15
2023-04-08T01:40:42.341Z,35.13
2023-04-08T01:40:57.018Z,35.47
2023-04-08T01:41:10.755Z,35.50
2023-04-08T01:41:23.187Z,33.88
2023-04-08T01:41:37.491Z,33.05
2023-04-08T01:41:52.010Z,33.03
2023-04-08T01:42:05.031Z,32.78
2023-04-08T01:42:17.080Z,32.15
2023-04-08T01:42:30.791Z,32.28
2023-04-08T01:42:45.132Z,32.92
2023-04-08T01:43:03.402Z,32.42
2023-04-08T01:43:19.370Z,32.13
2023-04-08T01:43:34.625Z,32.65
2023-04-08T01:43:48.772Z,32.50
2023-04-08T01:44:01.207Z,32.03
2023-04-08T01:44:17.359Z,33.25
2023-04-08T01:44:31.480Z,33.65
2023-04-08T01:44:44.481Z,32.13
2023-04-08T01:44:59.318Z,32.28
2023-04-08T01:45:12.196Z,33.17
2023-04-08T01:45:25.215Z,33.20
2023-04-08T01:45:38.795Z,32.08
2023-04-08T01:45:52.863Z,31.80
2023-04-08T01:46:06.595Z,33.10
2023-04-08T01:46:21.732Z,33.08
2023-04-08T01:46:35.285Z,31.85
2023-04-08T01:46:50.318Z,31.30
2023-04-08T01:47:03.947Z,32.45
2023-04-08T01:47:17.180Z,33.15
2023-04-08T01:47:31.255Z,32.63
2023-04-08T01:47:47.249Z,33.25
2023-04-08T01:48:00.914Z,33.72
2023-04-08T01:48:14.412Z,33.90
2023-04-08T01:48:28.377Z,33.38
2023-04-08T01:48:42.338Z,32.33
2023-04-08T01:48:55.674Z,33.33
2023-04-08T01:49:09.025Z,33.97
2023-04-08T01:49:22.756Z,34.65
2023-04-08T01:49:36.444Z,33.45
2023-04-08T01:49:49.732Z,32.97
2023-04-08T01:50:02.786Z,32.97
2023-04-08T01:50:18.332Z,33.30
2023-04-08T01:50:32.656Z,33.60
2023-04-08T01:50:45.588Z,34.25
2023-04-08T01:51:00.192Z,34.42
2023-04-08T01:51:13.347Z,33.33
2023-04-08T01:51:26.663Z,33.33
2023-04-08T01:51:39.868Z,32.90
2023-04-08T01:51:53.912Z,33.45
2023-04-08T01:52:09.302Z,33.90
2023-04-08T01:52:22.590Z,33.75
2023-04-08T01:52:37.747Z,34.72
2023-04-08T01:52:51.235Z,37.90
2023-04-08T01:53:05.344Z,39.10
2023-04-08T01:53:18.811Z,37.25
2023-04-08T01:53:31.549Z,39.58
2023-04-08T01:53:44.916Z,42.83
2023-04-08T01:53:57.089Z,40.22
2023-04-08T01:54:09.928Z,37.42
2023-04-08T01:54:22.436Z,35.47
2023-04-08T01:54:34.435Z,35.25
2023-04-08T01:54:48.178Z,35.00
2023-04-08T01:55:00.380Z,33.63
2023-04-08T01:55:12.572Z,33.22
2023-04-08T01:55:26.371Z,33.90
2023-04-08T01:55:40.824Z,34.47
2023-04-08T01:55:58.510Z,33.88
2023-04-08T01:56:14.673Z,33.70
2023-04-08T01:56:32.344Z,33.65
2023-04-08T01:56:46.162Z,34.80
2023-04-08T01:57:00.368Z,34.85
2023-04-08T01:57:16.302Z,34.28
2023-04-08T01:57:33.959Z,33.42
2023-04-08T01:57:50.970Z,33.55
2023-04-08T01:58:07.276Z,33.15
2023-04-08T01:58:21.856Z,34.15
2023-04-08T01:58:38.571Z,35.47
2023-04-08T01:58:54.003Z,35.25
2023-04-08T01:59:10.619Z,34.17
2023-04-08T01:59:24.917Z,34.80
2023-04-08T01:59:40.203Z,35.22
2023-04-08T01:59:53.535Z,35.47
2023-04-08T02:00:09.273Z,35.13
2023-04-08T02:00:34.614Z,34.15
2023-04-08T02:00:47.621Z,34.88
2023-04-08T02:01:01.003Z,35.15
2023-04-08T02:01:17.212Z,34.97
2023-04-08T02:01:31.209Z,35.13
2023-04-08T02:01:44.699Z,34.63
2023-04-08T02:01:57.665Z,34.17
2023-04-08T02:02:10.970Z,34.28
2023-04-08T02:02:26.216Z,34.08
2023-04-08T02:02:41.522Z,33.92
2023-04-08T02:02:55.928Z,33.53
2023-04-08T02:03:09.154Z,33.24
2023-04-08T02:03:25.961Z,33.38
2023-04-08T02:03:38.986Z,34.92
2023-04-08T02:03:53.606Z,35.70
2023-04-08T02:04:05.781Z,35.95
2023-04-08T02:04:18.207Z,35.54
2023-04-08T02:04:31.358Z,34.75
2023-04-08T02:04:44.226Z,35.10
2023-04-08T02:04:56.800Z,35.83
2023-04-08T02:05:10.127Z,35.90
2023-04-08T02:05:22.570Z,35.38
2023-04-08T02:05:34.922Z,35.47
2023-04-08T02:05:48.669Z,35.30
2023-04-08T02:06:00.875Z,35.05
2023-04-08T02:06:12.965Z,34.80
2023-04-08T02:06:27.235Z,34.30
2023-04-08T02:06:39.665Z,34.58
2023-04-08T02:06:52.549Z,34.38
2023-04-08T02:07:05.236Z,35.75
2023-04-08T02:07:17.897Z,36.08
2023-04-08T02:07:29.868Z,35.33
2023-04-08T02:07:42.085Z,35.58
2023-04-08T02:07:54.800Z,35.53
2023-04-08T02:08:07.935Z,35.03
2023-04-08T02:08:20.221Z,34.65
2023-04-08T02:08:34.493Z,35.78
2023-04-08T02:08:46.612Z,36.90
2023-04-08T02:08:59.618Z,35.72
2023-04-08T02:09:11.881Z,36.70
2023-04-08T02:09:25.378Z,35.53
2023-04-08T02:09:40.834Z,34.88
2023-04-08T02:09:52.805Z,34.92
2023-04-08T02:10:06.050Z,35.08
2023-04-08T02:10:18.435Z,35.60
2023-04-08T02:10:30.522Z,35.42
2023-04-08T02:10:42.876Z,35.22
2023-04-08T02:10:54.922Z,35.47
2023-04-08T02:11:08.566Z,35.65
2023-04-08T02:11:21.361Z,36.63
2023-04-08T02:11:33.704Z,36.65
2023-04-08T02:11:45.408Z,37.20
2023-04-08T02:11:58.633Z,37.08
2023-04-08T02:12:11.117Z,35.28
2023-04-08T02:12:23.254Z,35.30
2023-04-08T02:12:36.816Z,36.97
2023-04-08T02:12:54.885Z,38.05
2023-04-08T02:13:08.531Z,38.10
2023-04-08T02:13:20.809Z,37.63
2023-04-08T02:13:33.332Z,36.90
2023-04-08T02:13:45.799Z,36.28
2023-04-08T02:13:58.434Z,37.15
2023-04-08T02:14:10.640Z,37.83
2023-04-08T02:14:23.080Z,37.88
2023-04-08T02:14:35.672Z,38.35
2023-04-08T02:14:47.984Z,38.30
2023-04-08T02:15:01.497Z,37.97
2023-04-08T02:15:15.156Z,38.00
2023-04-08T02:15:34.158Z,37.95
2023-04-08T02:15:52.305Z,36.85
2023-04-08T02:16:10.190Z,37.35
2023-04-08T02:16:25.915Z,36.85
2023-04-08T02:16:50.410Z,37.30
2023-04-08T02:17:09.308Z,38.78
2023-04-08T02:17:26.734Z,38.17
2023-04-08T02:17:45.000Z,38.75
2023-04-08T02:18:05.795Z,38.95
2023-04-08T02:18:25.075Z,37.90
2023-04-08T02:18:40.983Z,37.40
2023-04-08T02:18:58.501Z,37.10
2023-04-08T02:19:15.627Z,38.83
2023-04-08T02:19:30.584Z,38.45
2023-04-08T02:19:49.180Z,37.35
2023-04-08T02:20:06.750Z,37.72
2023-04-08T02:20:24.535Z,38.35
2023-04-08T02:20:41.077Z,38.38
2023-04-08T02:20:58.765Z,37.10
2023-04-08T02:21:15.464Z,37.22
2023-04-08T02:21:34.235Z,38.45
2023-04-08T02:21:49.619Z,38.22
2023-04-08T02:22:09.689Z,38.50
2023-04-08T02:22:29.806Z,38.47
2023-04-08T02:22:45.820Z,39.03
2023-04-08T02:23:03.720Z,37.38
2023-04-08T02:23:20.179Z,37.13
2023-04-08T02:23:35.831Z,38.88
2023-04-08T02:23:50.760Z,38.90
2023-04-08T02:24:06.070Z,37.83
2023-04-08T02:24:19.085Z,37.22
2023-04-08T02:24:33.857Z,37.78
2023-04-08T02:24:47.020Z,38.55
2023-04-08T02:25:01.329Z,38.30
2023-04-08T02:25:16.400Z,37.42
2023-04-08T02:25:31.030Z,37.03
2023-04-08T02:25:48.214Z,38.53
2023-04-08T02:26:04.954Z,40.28
2023-04-08T02:26:19.783Z,39.47
2023-04-08T02:26:34.328Z,39.85
2023-04-08T02:26:50.182Z,40.53
2023-04-08T02:27:04.232Z,40.03
2023-04-08T02:27:17.432Z,39.60
2023-04-08T02:27:33.304Z,39.30
2023-04-08T02:27:46.852Z,38.97
2023-04-08T02:28:00.182Z,39.80
2023-04-08T02:28:14.225Z,39.63
2023-04-08T02:28:27.250Z,38.28
2023-04-08T02:28:41.390Z,39.20
2023-04-08T02:28:56.578Z,39.58
2023-04-08T02:29:13.144Z,38.85
2023-04-08T02:29:26.733Z,38.42
2023-04-08T02:29:41.565Z,38.72
2023-04-08T02:29:57.104Z,39.13
2023-04-08T02:30:11.845Z,40.13
2023-04-08T02:30:26.151Z,40.00
2023-04-08T02:30:42.361Z,39.55
2023-04-08T02:30:56.080Z,39.88
2023-04-08T02:31:10.850Z,39.85
2023-04-08T02:31:24.756Z,39.80
2023-04-08T02:31:41.695Z,40.53
2023-04-08T02:31:54.764Z,39.83
2023-04-08T02:32:09.509Z,38.65
2023-04-08T02:32:23.815Z,37.85
2023-04-08T02:32:37.069Z,39.00
2023-04-08T02:32:51.868Z,40.42
2023-04-08T02:33:05.469Z,40.80
2023-04-08T02:33:19.486Z,40.30
2023-04-08T02:33:34.795Z,40.28
2023-04-08T02:33:48.981Z,40.55
2023-04-08T02:34:01.645Z,40.17
2023-04-08T02:34:16.051Z,40.05
2023-04-08T02:34:29.100Z,40.08
2023-04-08T02:34:42.965Z,39.80
2023-04-08T02:34:56.864Z,39.65
2023-04-08T02:35:11.572Z,39.05
2023-04-08T02:35:24.537Z,38.47
2023-04-08T02:35:36.977Z,38.33
2023-04-08T02:35:50.891Z,38.85
2023-04-08T02:36:04.417Z,39.08
2023-04-08T02:36:17.391Z,39.25
2023-04-08T02:36:32.120Z,39.72
2023-04-08T02:36:47.826Z,39.65
2023-04-08T02:37:02.632Z,38.13
2023-04-08T02:37:15.098Z,37.38
2023-04-08T02:37:28.430Z,37.60
2023-04-08T02:37:40.891Z,37.25
2023-04-08T02:37:53.137Z,37.88
2023-04-08T02:38:07.455Z,38.30
2023-04-08T02:38:19.654Z,38.55
2023-04-08T02:38:31.931Z,38.80
2023-04-08T02:38:48.626Z,38.95
2023-04-08T02:39:02.178Z,39.90
2023-04-08T02:39:14.271Z,39.47
2023-04-08T02:39:31.247Z,38.58
2023-04-08T02:39:43.732Z,38.72
2023-04-08T02:39:56.786Z,37.78
2023-04-08T02:40:24.163Z,36.97
2023-04-08T02:40:36.259Z,37.53
2023-04-08T02:40:50.674Z,38.25
2023-04-08T02:41:03.572Z,38.72
2023-04-08T02:41:15.828Z,39.40
2023-04-08T02:41:30.295Z,39.17
2023-04-08T02:41:42.643Z,38.08
2023-04-08T02:41:54.696Z,37.88
2023-04-08T02:42:08.001Z,38.72
2023-04-08T02:42:20.898Z,39.05
2023-04-08T02:42:33.712Z,38.85
2023-04-08T02:42:46.017Z,38.40
2023-04-08T02:42:59.298Z,37.85
2023-04-08T02:43:11.723Z,37.63
2023-04-08T02:43:24.054Z,37.78
2023-04-08T02:43:37.194Z,37.47
2023-04-08T02:43:51.674Z,37.60
2023-04-08T02:44:04.376Z,37.88
2023-04-08T02:44:16.722Z,38.15
2023-04-08T02:44:28.840Z,38.75
2023-04-08T02:44:44.273Z,38.60
2023-04-08T02:44:57.981Z,38.08
2023-04-08T02:45:10.851Z,37.58
2023-04-08T02:45:25.626Z,37.22
2023-04-08T02:45:41.520Z,36.75
2023-04-08T02:45:54.274Z,37.10
2023-04-08T02:46:06.720Z,36.60
2023-04-08T02:46:19.312Z,36.85
2023-04-08T02:46:31.712Z,37.47
2023-04-08T02:46:44.302Z,38.72
2023-04-08T02:46:57.114Z,38.53
2023-04-08T02:47:09.534Z,38.20
2023-04-08T02:47:21.573Z,38.05
2023-04-08T02:47:34.293Z,37.72
2023-04-08T02:47:46.963Z,38.58
2023-04-08T02:48:00.741Z,39.05
2023-04-08T02:48:13.161Z,38.33
2023-04-08T02:48:25.373Z,39.25
2023-04-08T02:48:37.492Z,39.50
2023-04-08T02:48:51.560Z,39.20
2023-04-08T02:49:04.214Z,39.20
2023-04-08T02:49:16.113Z,38.58
2023-04-08T02:49:28.241Z,37.40
2023-04-08T02:49:40.327Z,38.85
2023-04-08T02:49:52.925Z,40.10
2023-04-08T02:50:05.986Z,40.40
2023-04-08T02:50:19.512Z,40.35
2023-04-08T02:50:31.456Z,39.75
2023-04-08T02:50:43.574Z,39.10
2023-04-08T02:50:55.871Z,38.25
2023-04-08T02:51:08.276Z,38.80
2023-04-08T02:51:20.710Z,38.90
2023-04-08T02:51:33.927Z,38.85
2023-04-08T02:51:45.844Z,39.75
2023-04-08T02:51:58.173Z,40.38
2023-04-08T02:52:10.303Z,39.88
2023-04-08T02:52:22.625Z,39.55
2023-04-08T02:52:34.568Z,39.03
2023-04-08T02:52:47.372Z,38.28
2023-04-08T02:52:59.610Z,38.47
2023-04-08T02:53:12.029Z,38.28
2023-04-08T02:53:25.156Z,39.28
2023-04-08T02:53:37.879Z,40.33
2023-04-08T02:53:49.806Z,40.50
2023-04-08T02:54:02.670Z,39.10
2023-04-08T02:54:15.459Z,38.83
2023-04-08T02:54:27.655Z,38.20
2023-04-08T02:54:40.183Z,37.78
2023-04-08T02:54:52.941Z,37.92
2023-04-08T02:55:07.241Z,37.75
2023-04-08T02:55:19.491Z,37.83
2023-04-08T02:55:31.452Z,37.40
2023-04-08T02:55:43.514Z,37.63
2023-04-08T02:55:56.155Z,37.38
2023-04-08T02:56:10.588Z,37.15
2023-04-08T02:56:22.927Z,38.55
2023-04-08T02:56:36.243Z,38.08
2023-04-08T02:56:48.600Z,37.10
2023-04-08T02:57:00.739Z,37.03
2023-04-08T02:57:13.102Z,37.58
2023-04-08T02:57:25.238Z,37.00
2023-04-08T02:57:37.219Z,37.45
2023-04-08T02:57:49.665Z,37.70
2023-04-08T02:58:01.996Z,37.28
2023-04-08T02:58:14.949Z,36.95